Time;durP1;ratioP1;P1;durP2;ratioP2;P2;SDS_P1;SDS_P2;PMS_P1;PMS_P2;Temp;Humidity;BMP_temperature;BMP_pressure;BME280_temperature;BME280_humidity;BME280_pressure;Samples;Min_cycle;Max_cycle;Signal;HPM_P1;HPM_P2
2024/02/11 00:00:19;;;;;;;37.20;26.10;;;10.30;99.90;;;;;;4971277;28;20211;-75
2024/02/11 00:02:47;;;;;;;34.50;25.30;;;10.30;99.90;;;;;;4970751;28;20321;-75
2024/02/11 00:05:14;;;;;;;36.70;26.37;;;10.30;99.90;;;;;;4971196;28;20746;-75
2024/02/11 00:07:42;;;;;;;39.40;26.83;;;10.30;99.90;;;;;;4970706;28;20641;-74
2024/02/11 00:10:10;;;;;;;38.30;26.90;;;10.30;99.90;;;;;;4970750;28;20207;-75
2024/02/11 00:12:38;;;;;;;40.47;27.43;;;10.30;99.90;;;;;;4970902;28;20242;-75
2024/02/11 00:15:08;;;;;;;37.33;26.40;;;10.30;99.90;;;;;;4970399;28;20577;-75
2024/02/11 00:17:35;;;;;;;40.67;27.83;;;10.30;99.90;;;;;;4970581;28;20457;-75
2024/02/11 00:20:06;;;;;;;40.83;28.17;;;10.30;99.90;;;;;;4970390;28;20635;-74
2024/02/11 00:22:33;;;;;;;41.77;28.07;;;10.30;99.90;;;;;;4969988;28;20238;-75
2024/02/11 00:25:01;;;;;;;41.00;28.80;;;10.30;99.90;;;;;;4970539;28;20221;-75
2024/02/11 00:27:27;;;;;;;44.73;29.43;;;10.30;99.90;;;;;;4970429;28;20206;-74
2024/02/11 00:29:54;;;;;;;42.97;29.23;;;10.30;99.90;;;;;;4970243;28;20249;-74
2024/02/11 00:32:21;;;;;;;39.47;28.87;;;10.30;99.90;;;;;;4958424;28;20298;-74
2024/02/11 00:34:48;;;;;;;43.03;29.93;;;10.30;99.90;;;;;;4950628;28;20306;-74
2024/02/11 00:37:16;;;;;;;42.27;29.23;;;10.30;99.90;;;;;;4950690;28;20809;-75
2024/02/11 00:39:43;;;;;;;43.40;29.63;;;10.30;99.90;;;;;;4950926;28;20825;-75
2024/02/11 00:42:10;;;;;;;43.27;29.70;;;10.30;99.90;;;;;;4950804;28;20682;-74
2024/02/11 00:44:37;;;;;;;44.77;31.30;;;10.30;99.90;;;;;;4957742;28;20241;-74
2024/02/11 00:47:04;;;;;;;47.30;30.70;;;10.30;99.90;;;;;;4970059;28;20203;-74
2024/02/11 00:49:31;;;;;;;47.30;32.07;;;10.40;99.90;;;;;;4970580;28;20295;-74
2024/02/11 00:51:58;;;;;;;47.07;31.27;;;10.40;99.90;;;;;;4969662;28;20219;-74
2024/02/11 00:54:26;;;;;;;40.60;30.37;;;10.40;99.90;;;;;;4955687;28;20215;-74
2024/02/11 00:56:55;;;;;;;48.57;32.40;;;10.40;99.90;;;;;;4950256;28;20232;-74
2024/02/11 00:59:22;;;;;;;44.50;31.60;;;10.30;99.90;;;;;;4956339;28;20249;-74
2024/02/11 01:01:50;;;;;;;49.40;32.90;;;10.30;99.90;;;;;;4969821;28;20554;-74
2024/02/11 01:04:17;;;;;;;52.43;33.63;;;10.30;99.90;;;;;;4969353;28;20214;-74
2024/02/11 01:06:44;;;;;;;46.47;31.90;;;10.30;99.90;;;;;;4969876;28;20298;-74
2024/02/11 01:09:11;;;;;;;46.97;31.63;;;10.30;99.90;;;;;;4969429;28;20211;-74
2024/02/11 01:11:39;;;;;;;48.97;32.90;;;10.30;99.90;;;;;;4969654;28;20206;-74
2024/02/11 01:14:07;;;;;;;50.27;33.93;;;10.30;99.90;;;;;;4969753;28;20215;-74
2024/02/11 01:16:35;;;;;;;47.47;33.10;;;10.30;99.90;;;;;;4969842;28;20274;-74
2024/02/11 01:19:04;;;;;;;52.30;33.33;;;10.30;99.90;;;;;;4969318;28;20744;-74
2024/02/11 01:21:31;;;;;;;53.33;32.73;;;10.30;99.90;;;;;;4969090;28;20206;-74
2024/02/11 01:23:58;;;;;;;49.87;32.20;;;10.30;99.90;;;;;;4967037;28;20277;-74
2024/02/11 01:26:25;;;;;;;51.50;33.73;;;10.30;99.90;;;;;;4969620;28;20671;-74
2024/02/11 01:28:53;;;;;;;54.70;34.53;;;10.30;99.90;;;;;;4966889;28;20666;-73
2024/02/11 01:31:20;;;;;;;50.60;32.87;;;10.30;99.90;;;;;;4969204;28;20234;-73
2024/02/11 01:33:49;;;;;;;49.63;33.57;;;10.30;99.90;;;;;;4969128;28;20242;-74
2024/02/11 01:36:16;;;;;;;51.83;34.60;;;10.30;99.90;;;;;;4969183;28;20310;-73
2024/02/11 01:38:43;;;;;;;52.97;32.83;;;10.30;99.90;;;;;;4969603;28;20345;-74
2024/02/11 01:41:10;;;;;;;51.13;32.87;;;10.30;99.90;;;;;;4965482;28;20818;-74
2024/02/11 01:43:37;;;;;;;54.50;34.13;;;10.30;99.90;;;;;;4988564;28;20678;-74
2024/02/11 01:46:06;;;;;;;56.00;33.57;;;10.30;99.90;;;;;;4987974;28;20210;-74
2024/02/11 01:48:33;;;;;;;53.33;33.47;;;10.30;99.90;;;;;;4988824;28;20220;-74
2024/02/11 01:51:00;;;;;;;52.37;33.57;;;10.30;99.90;;;;;;4988126;28;20257;-74
2024/02/11 01:53:28;;;;;;;49.33;32.97;;;10.30;99.90;;;;;;4982619;28;20278;-74
2024/02/11 01:55:56;;;;;;;50.77;32.90;;;10.30;99.90;;;;;;4968943;28;20240;-74
2024/02/11 01:58:24;;;;;;;53.37;33.83;;;10.30;99.90;;;;;;4968757;28;20298;-74
2024/02/11 02:00:52;;;;;;;51.73;31.67;;;10.30;99.90;;;;;;4967802;28;21096;-74
2024/02/11 02:03:21;;;;;;;47.53;31.83;;;10.30;99.90;;;;;;4967798;28;20234;-74
2024/02/11 02:05:48;;;;;;;52.77;33.33;;;10.30;99.90;;;;;;4968325;28;20218;-73
2024/02/11 02:08:15;;;;;;;54.60;32.70;;;10.20;99.90;;;;;;4968448;28;20242;-73
2024/02/11 02:10:43;;;;;;;53.93;33.27;;;10.20;99.90;;;;;;4968740;28;20635;-74
2024/02/11 02:13:10;;;;;;;51.27;31.67;;;10.20;99.90;;;;;;4969195;28;20617;-73
2024/02/11 02:15:37;;;;;;;55.20;33.90;;;10.10;99.90;;;;;;4968587;28;20206;-73
2024/02/11 02:18:04;;;;;;;54.07;32.23;;;10.20;99.90;;;;;;4968519;28;20275;-73
2024/02/11 02:20:32;;;;;;;56.47;33.70;;;10.20;99.90;;;;;;4968949;28;20221;-73
2024/02/11 02:23:00;;;;;;;58.67;33.40;;;10.20;99.90;;;;;;4961936;28;20279;-73
2024/02/11 02:25:27;;;;;;;50.70;32.07;;;10.20;99.90;;;;;;4968807;28;20234;-73
2024/02/11 02:27:54;;;;;;;55.63;33.60;;;10.10;99.90;;;;;;4968308;28;20215;-73
2024/02/11 02:30:22;;;;;;;54.03;32.87;;;10.10;99.90;;;;;;4968385;28;20305;-73
2024/02/11 02:32:49;;;;;;;54.70;32.73;;;10.10;99.90;;;;;;4968198;28;20309;-75
2024/02/11 02:35:21;;;;;;;50.60;31.67;;;10.20;99.90;;;;;;4968366;28;20260;-75
2024/02/11 02:37:48;;;;;;;55.90;33.27;;;10.20;99.90;;;;;;4967880;28;20239;-75
2024/02/11 02:40:16;;;;;;;54.67;32.27;;;10.20;99.90;;;;;;4968758;28;20217;-75
2024/02/11 02:42:43;;;;;;;53.83;32.03;;;10.20;99.90;;;;;;4968544;28;20337;-75
2024/02/11 02:45:10;;;;;;;54.33;32.37;;;10.10;99.90;;;;;;4968387;28;20670;-75
2024/02/11 02:47:37;;;;;;;53.87;32.03;;;10.10;99.90;;;;;;4968230;28;20277;-75
2024/02/11 02:50:04;;;;;;;54.37;32.03;;;10.10;99.90;;;;;;4968235;28;20290;-75
2024/02/11 02:52:31;;;;;;;57.83;33.37;;;10.10;99.90;;;;;;4967809;28;20658;-75
2024/02/11 02:55:05;;;;;;;51.97;31.70;;;10.10;99.90;;;;;;4968372;28;20301;-75
2024/02/11 02:57:33;;;;;;;55.07;32.13;;;10.20;99.90;;;;;;4967549;28;20229;-75
2024/02/11 03:00:00;;;;;;;53.57;31.83;;;10.10;99.90;;;;;;4968157;28;20948;-75
2024/02/11 03:02:29;;;;;;;49.70;30.77;;;10.10;99.90;;;;;;4968427;28;20675;-75
2024/02/11 03:04:56;;;;;;;56.83;32.37;;;10.10;99.90;;;;;;4968159;28;20301;-76
2024/02/11 03:07:23;;;;;;;52.50;31.13;;;10.10;99.90;;;;;;4986344;28;20202;-76
2024/02/11 03:09:50;;;;;;;49.40;30.03;;;10.10;99.90;;;;;;4987799;28;20241;-75
2024/02/11 03:12:17;;;;;;;54.40;31.97;;;10.10;99.90;;;;;;4987591;28;20553;-75
2024/02/11 03:14:45;;;;;;;51.57;31.70;;;10.10;99.90;;;;;;4977416;28;20784;-76
2024/02/11 03:17:12;;;;;;;53.30;30.17;;;10.10;99.90;;;;;;4968255;28;20253;-76
2024/02/11 03:19:41;;;;;;;52.50;30.93;;;10.10;99.90;;;;;;4967406;28;20242;-77
2024/02/11 03:22:11;;;;;;;54.27;31.33;;;10.10;99.90;;;;;;4967832;28;20242;-77
2024/02/11 03:24:38;;;;;;;52.20;30.57;;;10.00;99.90;;;;;;4967418;28;20203;-77
2024/02/11 03:27:05;;;;;;;46.93;29.67;;;10.10;99.90;;;;;;4959488;28;20226;-77
2024/02/11 03:29:32;;;;;;;51.00;30.43;;;10.00;99.90;;;;;;4960274;28;20293;-76
2024/02/11 03:32:01;;;;;;;49.23;29.33;;;10.00;99.90;;;;;;4968067;28;20836;-76
2024/02/11 03:34:28;;;;;;;48.47;30.53;;;10.00;99.90;;;;;;4967379;28;20701;-76
2024/02/11 03:36:55;;;;;;;52.40;29.73;;;10.00;99.90;;;;;;4967581;28;20340;-78
2024/02/11 03:39:22;;;;;;;50.30;29.63;;;10.00;99.90;;;;;;4968236;28;20244;-74
2024/02/11 03:41:49;;;;;;;50.53;29.03;;;10.00;99.90;;;;;;4967879;28;20211;-74
2024/02/11 03:44:17;;;;;;;46.10;28.73;;;10.00;99.90;;;;;;4967819;28;20295;-75
2024/02/11 03:46:44;;;;;;;45.10;27.13;;;10.00;99.90;;;;;;4956423;28;20238;-75
2024/02/11 03:49:14;;;;;;;49.20;28.47;;;10.00;99.90;;;;;;4948336;28;20307;-75
2024/02/11 03:51:41;;;;;;;46.53;28.13;;;10.00;99.90;;;;;;4948228;28;20199;-75
2024/02/11 03:54:08;;;;;;;52.37;28.93;;;10.00;99.90;;;;;;4959749;28;20334;-75
2024/02/11 03:56:40;;;;;;;46.67;28.10;;;10.00;99.90;;;;;;4967748;28;20217;-74
2024/02/11 03:59:10;;;;;;;45.80;27.30;;;10.00;99.90;;;;;;4967647;28;20322;-75
2024/02/11 04:01:37;;;;;;;48.20;28.00;;;10.00;99.90;;;;;;4967649;28;20391;-74
2024/02/11 04:04:04;;;;;;;46.00;28.60;;;10.00;99.90;;;;;;4967317;28;20502;-75
2024/02/11 04:06:34;;;;;;;51.07;29.37;;;10.00;99.90;;;;;;4967536;28;20312;-75
2024/02/11 04:09:03;;;;;;;51.00;28.60;;;10.00;99.90;;;;;;4968019;28;20199;-75
2024/02/11 04:11:30;;;;;;;47.57;28.37;;;10.00;99.90;;;;;;4971346;28;20246;-75
2024/02/11 04:13:58;;;;;;;45.40;27.33;;;9.90;99.90;;;;;;4970531;28;20294;-75
2024/02/11 04:16:25;;;;;;;47.07;28.07;;;10.00;99.90;;;;;;4970949;28;20238;-75
2024/02/11 04:18:53;;;;;;;44.13;26.67;;;10.00;99.90;;;;;;4971236;28;20230;-75
2024/02/11 04:21:21;;;;;;;46.03;27.93;;;9.90;99.90;;;;;;4970814;28;20214;-75
2024/02/11 04:23:49;;;;;;;49.30;28.07;;;9.90;99.90;;;;;;4961765;28;20732;-75
2024/02/11 04:26:17;;;;;;;47.07;26.90;;;10.00;99.90;;;;;;4951737;28;20214;-75
2024/02/11 04:28:47;;;;;;;45.40;27.70;;;9.90;99.90;;;;;;4953890;28;20796;-75
2024/02/11 04:31:16;;;;;;;46.17;27.77;;;9.90;99.90;;;;;;4970297;28;20219;-74
2024/02/11 04:33:46;;;;;;;45.43;27.57;;;9.90;99.90;;;;;;4970572;28;20215;-75
2024/02/11 04:36:16;;;;;;;50.37;28.90;;;9.90;99.90;;;;;;4970428;28;20214;-75
2024/02/11 04:38:44;;;;;;;47.23;27.27;;;9.90;99.90;;;;;;4970354;28;20314;-75
2024/02/11 04:41:13;;;;;;;46.40;26.90;;;9.90;99.90;;;;;;4970177;28;20666;-75
2024/02/11 04:43:41;;;;;;;48.97;27.50;;;9.90;99.90;;;;;;4970831;28;20266;-74
2024/02/11 04:46:09;;;;;;;45.33;26.43;;;9.90;99.90;;;;;;4970234;28;20674;-75
2024/02/11 04:48:36;;;;;;;42.60;25.97;;;9.90;99.90;;;;;;4970550;28;20210;-76
2024/02/11 04:51:07;;;;;;;45.57;26.87;;;9.90;99.90;;;;;;4970190;28;20210;-75
2024/02/11 04:53:34;;;;;;;44.07;26.63;;;9.90;99.90;;;;;;4970157;28;20226;-76
2024/02/11 04:56:01;;;;;;;42.23;26.57;;;9.90;99.90;;;;;;4970240;28;20242;-75
2024/02/11 04:58:31;;;;;;;44.40;27.60;;;9.80;99.90;;;;;;4970057;28;20670;-75
2024/02/11 05:00:58;;;;;;;44.50;26.83;;;9.80;99.90;;;;;;4969799;28;20708;-75
2024/02/11 05:03:26;;;;;;;48.23;28.17;;;9.80;99.90;;;;;;4969958;28;20314;-75
2024/02/11 05:05:53;;;;;;;42.77;25.90;;;9.90;99.90;;;;;;4969526;28;20728;-75
2024/02/11 05:08:22;;;;;;;47.40;27.23;;;9.90;99.90;;;;;;4969976;28;20270;-76
2024/02/11 05:10:51;;;;;;;41.27;26.43;;;9.90;99.90;;;;;;4969806;28;20301;-75
2024/02/11 05:13:18;;;;;;;45.63;26.80;;;9.90;99.90;;;;;;4968804;28;20214;-77
2024/02/11 05:15:48;;;;;;;44.87;27.23;;;9.90;99.90;;;;;;4950732;28;20207;-77
2024/02/11 05:18:18;;;;;;;47.53;26.73;;;9.80;99.90;;;;;;4963157;28;20230;-76
2024/02/11 05:20:46;;;;;;;49.90;27.43;;;9.90;99.90;;;;;;4968689;28;20215;-76
2024/02/11 05:23:12;;;;;;;45.77;26.73;;;9.80;99.90;;;;;;4964991;28;20326;-76
2024/02/11 05:25:43;;;;;;;49.73;27.60;;;9.80;99.90;;;;;;4954254;28;20740;-76
2024/02/11 05:28:13;;;;;;;47.33;27.17;;;9.80;99.90;;;;;;4969749;28;20262;-76
2024/02/11 05:30:42;;;;;;;47.07;26.80;;;9.80;99.90;;;;;;4969184;28;20213;-74
2024/02/11 05:33:12;;;;;;;45.43;27.13;;;9.90;99.90;;;;;;4969653;28;20258;-74
2024/02/11 05:35:40;;;;;;;47.60;27.10;;;9.80;99.90;;;;;;4969474;28;20752;-74
2024/02/11 05:38:09;;;;;;;53.37;27.87;;;9.90;99.90;;;;;;4961656;28;20538;-74
2024/02/11 05:40:41;;;;;;;52.90;28.00;;;9.80;99.90;;;;;;4950348;28;20302;-74
2024/02/11 05:43:09;;;;;;;44.60;27.53;;;9.80;99.90;;;;;;4950247;28;20200;-74
2024/02/11 05:45:37;;;;;;;47.33;26.77;;;9.80;99.90;;;;;;4949857;28;20581;-75
2024/02/11 05:48:05;;;;;;;46.80;26.57;;;9.80;99.90;;;;;;4960667;28;20234;-75
2024/02/11 05:50:34;;;;;;;47.90;27.80;;;9.80;99.90;;;;;;4962745;28;20235;-75
2024/02/11 05:53:01;;;;;;;47.40;27.63;;;9.80;99.90;;;;;;4951815;28;20294;-75
2024/02/11 05:55:28;;;;;;;44.80;27.40;;;9.80;99.90;;;;;;4968887;28;20238;-75
2024/02/11 05:57:55;;;;;;;45.00;26.40;;;9.90;99.90;;;;;;4968846;28;20223;-75
2024/02/11 06:00:24;;;;;;;51.13;27.80;;;9.80;99.90;;;;;;4968907;28;20329;-74
2024/02/11 06:02:53;;;;;;;49.23;27.17;;;9.80;99.90;;;;;;4968866;28;20632;-74
2024/02/11 06:05:21;;;;;;;52.90;28.27;;;9.80;99.90;;;;;;4962071;28;20286;-74
2024/02/11 06:07:51;;;;;;;46.93;27.40;;;9.80;99.90;;;;;;4949093;28;20722;-76
2024/02/11 06:10:19;;;;;;;45.80;27.53;;;9.80;99.90;;;;;;4949663;28;20600;-77
2024/02/11 06:12:47;;;;;;;50.30;28.70;;;9.80;99.90;;;;;;4949567;28;20745;-75
2024/02/11 06:15:16;;;;;;;45.07;27.03;;;9.80;99.90;;;;;;4967606;28;20294;-75
2024/02/11 06:17:43;;;;;;;55.03;27.77;;;9.70;99.90;;;;;;4968829;28;20215;-75
2024/02/11 06:20:13;;;;;;;46.23;26.97;;;9.70;99.90;;;;;;4968558;28;20238;-75
2024/02/11 06:22:40;;;;;;;47.37;27.10;;;9.70;99.90;;;;;;4969539;28;20982;-76
2024/02/11 06:25:09;;;;;;;48.50;26.90;;;9.70;99.90;;;;;;4968511;28;20704;-77
2024/02/11 06:27:38;;;;;;;47.40;26.43;;;9.70;99.90;;;;;;4968981;28;20207;-77
2024/02/11 06:30:08;;;;;;;51.97;28.07;;;9.70;99.90;;;;;;4968259;28;20222;-77
2024/02/11 06:32:36;;;;;;;50.20;27.77;;;9.70;99.90;;;;;;4968468;28;20907;-75
2024/02/11 06:35:04;;;;;;;48.93;26.80;;;9.70;99.90;;;;;;4968253;28;20211;-75
2024/02/11 06:37:31;;;;;;;48.67;26.17;;;9.70;99.90;;;;;;4968253;28;20211;-75
2024/02/11 06:39:59;;;;;;;47.20;25.57;;;9.70;99.90;;;;;;4968016;28;20223;-75
2024/02/11 06:42:30;;;;;;;50.30;27.20;;;9.70;99.90;;;;;;4968494;28;20214;-76
2024/02/11 06:44:58;;;;;;;46.57;26.90;;;9.70;99.90;;;;;;4967963;28;20286;-75
2024/02/11 06:47:25;;;;;;;47.03;25.23;;;9.70;99.90;;;;;;4968392;28;20210;-76
2024/02/11 06:49:52;;;;;;;47.23;26.27;;;9.70;99.90;;;;;;4968350;28;20246;-78
2024/02/11 06:52:19;;;;;;;43.23;26.77;;;9.70;99.90;;;;;;4968519;28;20214;-77
2024/02/11 06:54:48;;;;;;;49.73;26.43;;;9.70;99.90;;;;;;4968619;28;20305;-77
2024/02/11 06:57:16;;;;;;;46.90;26.83;;;9.70;99.90;;;;;;4954326;28;20302;-75
2024/02/11 06:59:44;;;;;;;47.63;27.70;;;9.70;99.90;;;;;;4948842;28;20239;-76
2024/02/11 07:02:11;;;;;;;48.77;26.87;;;9.60;99.90;;;;;;4948631;28;20943;-76
2024/02/11 07:04:38;;;;;;;45.67;25.77;;;9.60;99.90;;;;;;4948664;28;20294;-76
2024/02/11 07:07:05;;;;;;;49.57;26.57;;;9.60;99.90;;;;;;4948505;28;20577;-75
2024/02/11 07:09:32;;;;;;;48.77;25.93;;;9.60;99.90;;;;;;4951463;28;20290;-75
2024/02/11 07:11:59;;;;;;;50.00;27.73;;;9.60;99.90;;;;;;4967508;28;20329;-76
2024/02/11 07:14:27;;;;;;;46.77;26.13;;;9.60;99.90;;;;;;4955741;28;20210;-75
2024/02/11 07:16:55;;;;;;;45.93;26.27;;;9.60;99.90;;;;;;4948577;28;20219;-75
2024/02/11 07:19:24;;;;;;;42.73;25.90;;;9.70;99.90;;;;;;4965805;28;20798;-75
2024/02/11 07:21:52;;;;;;;48.60;26.67;;;9.70;99.90;;;;;;4967586;28;20213;-75
2024/02/11 07:24:19;;;;;;;47.60;26.13;;;9.70;99.90;;;;;;4966883;28;20222;-75
2024/02/11 07:26:47;;;;;;;45.57;26.13;;;9.60;99.90;;;;;;4964696;28;20295;-75
2024/02/11 07:29:14;;;;;;;46.83;25.57;;;9.70;99.90;;;;;;4957162;28;20199;-75
2024/02/11 07:31:42;;;;;;;47.20;25.33;;;9.60;99.90;;;;;;4958873;28;20196;-75
2024/02/11 07:34:11;;;;;;;47.30;26.07;;;9.60;99.90;;;;;;4959478;28;20302;-75
2024/02/11 07:36:38;;;;;;;45.40;25.53;;;9.70;99.90;;;;;;4967826;28;20214;-73
2024/02/11 07:39:05;;;;;;;53.77;27.30;;;9.60;99.90;;;;;;4967768;28;20245;-73
2024/02/11 07:41:32;;;;;;;43.23;24.90;;;9.60;99.90;;;;;;4950233;28;20690;-74
2024/02/11 07:43:59;;;;;;;48.13;25.90;;;9.60;99.90;;;;;;4949014;28;20687;-75
2024/02/11 07:46:26;;;;;;;50.03;24.97;;;9.60;99.90;;;;;;4952507;28;20310;-75
2024/02/11 07:48:53;;;;;;;46.20;25.33;;;9.60;99.90;;;;;;4956438;28;20246;-76
2024/02/11 07:51:23;;;;;;;45.10;25.47;;;9.60;99.90;;;;;;4971390;28;20206;-75
2024/02/11 07:53:50;;;;;;;45.30;25.43;;;9.50;99.90;;;;;;4971643;28;20363;-75
2024/02/11 07:56:18;;;;;;;48.00;25.17;;;9.50;99.90;;;;;;4971309;28;20242;-75
2024/02/11 07:58:45;;;;;;;44.93;24.67;;;9.50;99.90;;;;;;4971317;28;20871;-76
2024/02/11 08:01:12;;;;;;;46.10;24.90;;;9.60;99.90;;;;;;4971095;28;20234;-75
2024/02/11 08:03:39;;;;;;;43.97;24.40;;;9.50;99.90;;;;;;4971232;28;20306;-76
2024/02/11 08:06:09;;;;;;;45.50;25.33;;;9.50;99.90;;;;;;4968507;28;20226;-76
2024/02/11 08:08:37;;;;;;;48.40;25.33;;;9.60;99.90;;;;;;4952326;28;20238;-74
2024/02/11 08:11:05;;;;;;;45.77;25.10;;;9.50;99.90;;;;;;4952158;28;20211;-74
2024/02/11 08:13:32;;;;;;;47.60;25.03;;;9.50;99.90;;;;;;4952889;28;20212;-74
2024/02/11 08:15:59;;;;;;;47.00;25.23;;;9.60;99.90;;;;;;4970670;28;20680;-73
2024/02/11 08:18:26;;;;;;;45.10;24.93;;;9.60;99.90;;;;;;4971251;28;20736;-74
2024/02/11 08:20:55;;;;;;;50.87;25.77;;;9.60;99.90;;;;;;4970509;28;20241;-74
2024/02/11 08:23:23;;;;;;;47.43;25.70;;;9.60;99.90;;;;;;4970442;28;20239;-74
2024/02/11 08:25:51;;;;;;;48.07;25.20;;;9.60;99.90;;;;;;4951586;28;20208;-74
2024/02/11 08:28:18;;;;;;;43.33;24.73;;;9.60;99.90;;;;;;4951832;28;20262;-74
2024/02/11 08:30:45;;;;;;;44.37;24.97;;;9.60;99.90;;;;;;4951599;28;20219;-74
2024/02/11 08:33:12;;;;;;;45.77;25.97;;;9.60;99.90;;;;;;4966232;28;20321;-75
2024/02/11 08:35:39;;;;;;;47.27;24.73;;;9.60;99.90;;;;;;4951687;28;20266;-76
2024/02/11 08:38:06;;;;;;;48.43;24.37;;;9.60;99.90;;;;;;4951146;28;20294;-76
2024/02/11 08:40:33;;;;;;;45.07;23.67;;;9.60;99.90;;;;;;4951487;28;20350;-74
2024/02/11 08:43:01;;;;;;;42.93;24.73;;;9.60;99.90;;;;;;4952054;28;20305;-74
2024/02/11 08:45:28;;;;;;;44.43;23.57;;;9.60;99.90;;;;;;4951410;28;20290;-74
2024/02/11 08:47:55;;;;;;;43.60;24.47;;;9.60;99.90;;;;;;4951554;28;20341;-75
2024/02/11 08:50:25;;;;;;;47.77;25.07;;;9.60;99.90;;;;;;4951441;28;20294;-75
2024/02/11 08:52:52;;;;;;;48.20;23.87;;;9.60;99.90;;;;;;4951944;28;20298;-75
2024/02/11 08:55:18;;;;;;;45.77;24.43;;;9.60;99.90;;;;;;4970547;28;20305;-75
2024/02/11 08:57:47;;;;;;;45.70;24.97;;;9.60;99.90;;;;;;4970423;28;20305;-74
2024/02/11 09:00:18;;;;;;;43.03;23.43;;;9.60;99.90;;;;;;4952488;28;20725;-74
2024/02/11 09:02:46;;;;;;;48.50;24.33;;;9.60;99.90;;;;;;4964779;28;20374;-75
2024/02/11 09:05:12;;;;;;;45.07;25.27;;;9.70;99.90;;;;;;4969714;28;20242;-75
2024/02/11 09:07:42;;;;;;;39.43;23.87;;;9.60;99.90;;;;;;4970091;28;20218;-75
2024/02/11 09:10:12;;;;;;;46.50;24.37;;;9.70;99.90;;;;;;4969834;28;20245;-74
2024/02/11 09:12:40;;;;;;;45.67;24.97;;;9.60;99.90;;;;;;4967414;28;20662;-75
2024/02/11 09:15:08;;;;;;;43.80;25.10;;;9.70;99.90;;;;;;4969687;28;20282;-74
2024/02/11 09:17:43;;;;;;;45.23;24.70;;;9.70;99.90;;;;;;4960215;28;20222;-75
2024/02/11 09:20:12;;;;;;;47.37;25.00;;;9.70;99.90;;;;;;4969892;28;20254;-74
2024/02/11 09:22:39;;;;;;;44.53;24.77;;;9.70;99.90;;;;;;4969301;28;20675;-74
2024/02/11 09:25:08;;;;;;;43.13;24.03;;;9.70;99.90;;;;;;4969177;28;20242;-74
2024/02/11 09:27:35;;;;;;;48.73;26.07;;;9.70;99.90;;;;;;4969896;28;20269;-73
2024/02/11 09:30:03;;;;;;;46.47;25.97;;;9.70;99.90;;;;;;4969602;28;20218;-74
2024/02/11 09:32:30;;;;;;;47.60;25.20;;;9.70;99.90;;;;;;4969429;28;20218;-74
2024/02/11 09:34:58;;;;;;;47.83;25.33;;;9.80;99.90;;;;;;4955511;28;20279;-74
2024/02/11 09:37:25;;;;;;;46.00;25.43;;;9.80;99.90;;;;;;4954232;28;20695;-74
2024/02/11 09:39:52;;;;;;;46.43;25.23;;;9.80;99.90;;;;;;4969264;28;20241;-74
2024/02/11 09:42:21;;;;;;;48.83;25.17;;;9.70;99.90;;;;;;4969447;28;20250;-74
2024/02/11 09:44:50;;;;;;;45.67;25.13;;;9.70;99.90;;;;;;4969257;28;20331;-74
2024/02/11 09:47:20;;;;;;;43.87;25.43;;;9.70;99.90;;;;;;4969587;28;20321;-74
2024/02/11 09:49:51;;;;;;;46.97;25.73;;;9.70;99.90;;;;;;4968739;28;20231;-74
2024/02/11 09:52:22;;;;;;;50.70;26.50;;;9.70;99.90;;;;;;4968729;28;20310;-74
2024/02/11 09:54:50;;;;;;;49.13;25.90;;;9.70;99.90;;;;;;4969522;28;20286;-74
2024/02/11 09:57:17;;;;;;;47.10;26.10;;;9.70;99.90;;;;;;4969317;28;20211;-74
2024/02/11 09:59:43;;;;;;;44.80;24.47;;;9.70;99.90;;;;;;4968917;28;20325;-74
2024/02/11 10:02:18;;;;;;;51.40;25.87;;;9.80;99.90;;;;;;4968886;28;20673;-74
2024/02/11 10:04:45;;;;;;;45.50;25.57;;;9.80;99.90;;;;;;4968681;28;20282;-74
2024/02/11 10:07:34;;;;;;;48.50;25.87;;;9.80;99.90;;;;;;4967140;28;20241;-74
2024/02/11 10:10:03;;;;;;;49.90;26.20;;;9.80;99.90;;;;;;4970994;28;20264;-75
2024/02/11 10:12:31;;;;;;;43.93;25.03;;;9.80;99.90;;;;;;4966937;28;20242;-74
2024/02/11 10:14:59;;;;;;;47.53;25.20;;;9.80;99.90;;;;;;4966692;28;20290;-74
2024/02/11 10:17:31;;;;;;;42.97;25.13;;;9.90;99.90;;;;;;4966893;28;20604;-74
2024/02/11 10:19:59;;;;;;;45.13;25.30;;;9.90;99.90;;;;;;4966357;28;20215;-74
2024/02/11 10:22:27;;;;;;;47.33;25.33;;;9.90;99.90;;;;;;4966350;28;20250;-74
2024/02/11 10:24:56;;;;;;;49.53;26.30;;;9.90;99.90;;;;;;4949126;28;20215;-74
2024/02/11 10:27:24;;;;;;;48.07;24.43;;;9.90;99.90;;;;;;4947838;28;20805;-74
2024/02/11 10:29:51;;;;;;;44.67;24.20;;;9.90;99.90;;;;;;4947761;28;20217;-74
2024/02/11 10:32:18;;;;;;;48.53;25.80;;;9.80;99.90;;;;;;4947785;28;20682;-74
2024/02/11 10:34:47;;;;;;;44.10;24.37;;;9.90;99.90;;;;;;4947607;28;20203;-74
2024/02/11 10:37:15;;;;;;;41.67;24.43;;;9.90;99.90;;;;;;4946928;28;20769;-74
2024/02/11 10:39:42;;;;;;;42.70;24.70;;;9.80;99.90;;;;;;4947431;28;20234;-75
2024/02/11 10:42:10;;;;;;;43.77;24.83;;;9.90;99.90;;;;;;4947359;28;20665;-74
2024/02/11 10:44:39;;;;;;;46.63;25.77;;;9.90;99.90;;;;;;4960363;28;20237;-74
2024/02/11 10:47:08;;;;;;;43.33;24.17;;;9.90;99.90;;;;;;4949049;28;20211;-74
2024/02/11 10:49:35;;;;;;;40.80;23.97;;;9.90;99.90;;;;;;4949150;28;20215;-74
2024/02/11 10:52:07;;;;;;;36.27;23.67;;;9.90;99.90;;;;;;4948279;28;20721;-75
2024/02/11 10:54:41;;;;;;;44.77;24.23;;;9.90;99.90;;;;;;4963489;28;20257;-74
2024/02/11 10:57:12;;;;;;;38.23;23.37;;;9.90;99.90;;;;;;4968354;28;20199;-75
2024/02/11 10:59:43;;;;;;;42.17;24.20;;;9.90;99.90;;;;;;4967738;28;20199;-74
2024/02/11 11:02:12;;;;;;;33.87;22.57;;;9.90;99.90;;;;;;4968240;28;20226;-74
2024/02/11 11:04:41;;;;;;;37.50;23.20;;;9.90;99.90;;;;;;4964343;28;20834;-74
2024/02/11 11:07:12;;;;;;;37.93;23.03;;;9.90;99.90;;;;;;4967897;28;20289;-74
2024/02/11 11:09:40;;;;;;;39.00;22.50;;;9.90;99.90;;;;;;4968347;28;20230;-74
2024/02/11 11:12:08;;;;;;;41.57;23.63;;;9.80;99.90;;;;;;4968006;28;20278;-74
2024/02/11 11:14:42;;;;;;;39.10;23.70;;;9.90;99.90;;;;;;4968429;28;20217;-74
2024/02/11 11:17:20;;;;;;;39.50;23.53;;;9.80;99.90;;;;;;4960007;28;20556;-74
2024/02/11 11:19:50;;;;;;;41.03;23.03;;;9.80;99.90;;;;;;4951061;28;20242;-74
2024/02/11 11:22:25;;;;;;;36.67;22.20;;;9.80;99.90;;;;;;4952041;28;20355;-74
2024/02/11 11:24:53;;;;;;;37.43;21.87;;;9.80;99.90;;;;;;4965533;28;20238;-74
2024/02/11 11:27:21;;;;;;;32.47;21.27;;;9.80;99.90;;;;;;4965259;28;20241;-74
2024/02/11 11:29:49;;;;;;;35.90;23.00;;;9.70;99.90;;;;;;4970836;28;20250;-74
2024/02/11 11:32:22;;;;;;;37.33;21.77;;;9.80;99.90;;;;;;4953856;28;20298;-74
2024/02/11 11:34:49;;;;;;;37.30;23.03;;;9.80;99.90;;;;;;4957604;28;20678;-74
2024/02/11 11:37:16;;;;;;;38.50;22.93;;;9.80;99.90;;;;;;4970055;28;20678;-74
2024/02/11 11:39:44;;;;;;;38.30;22.27;;;9.80;99.90;;;;;;4970262;28;20211;-74
2024/02/11 11:42:11;;;;;;;36.13;22.60;;;9.80;99.90;;;;;;4969103;28;20234;-74
2024/02/11 11:44:39;;;;;;;39.23;22.53;;;9.80;99.90;;;;;;4959793;28;20203;-74
2024/02/11 11:47:06;;;;;;;34.87;22.77;;;9.90;99.90;;;;;;4970494;28;20217;-74
2024/02/11 11:49:36;;;;;;;36.80;22.87;;;9.80;99.90;;;;;;4970214;28;20296;-74
2024/02/11 11:52:04;;;;;;;38.53;22.53;;;9.90;99.90;;;;;;4966549;28;20207;-74
2024/02/11 11:54:32;;;;;;;36.83;23.47;;;9.80;99.90;;;;;;4965221;28;20222;-74
2024/02/11 11:56:59;;;;;;;42.70;22.70;;;9.90;99.90;;;;;;4970261;28;20301;-73
2024/02/11 11:59:26;;;;;;;39.10;22.10;;;9.80;99.90;;;;;;4969012;28;20261;-74
2024/02/11 12:01:55;;;;;;;33.33;22.10;;;9.80;99.90;;;;;;4968670;28;20337;-74
2024/02/11 12:04:22;;;;;;;36.23;21.90;;;9.90;99.90;;;;;;4969898;28;20207;-74
2024/02/11 12:06:51;;;;;;;32.20;21.23;;;9.90;99.90;;;;;;4969577;28;20681;-74
2024/02/11 12:09:18;;;;;;;32.87;21.77;;;9.80;99.90;;;;;;4969657;28;20207;-74
2024/02/11 12:11:47;;;;;;;33.20;21.00;;;9.90;99.90;;;;;;4962918;28;20265;-74
2024/02/11 12:14:14;;;;;;;33.73;21.70;;;9.90;99.90;;;;;;4950979;28;20208;-74
2024/02/11 12:16:42;;;;;;;33.93;21.53;;;9.90;99.90;;;;;;4950252;28;20675;-74
2024/02/11 12:19:09;;;;;;;34.93;21.43;;;9.90;99.90;;;;;;4950281;28;20307;-74
2024/02/11 12:21:37;;;;;;;33.07;21.53;;;9.90;99.90;;;;;;4950243;28;20235;-74
2024/02/11 12:24:08;;;;;;;32.10;20.07;;;9.90;99.90;;;;;;4914085;28;1388671;-74
2024/02/11 12:26:35;;;;;;;31.70;20.47;;;9.90;99.90;;;;;;4969494;28;20306;-74
2024/02/11 12:29:02;;;;;;;31.43;19.33;;;9.80;99.90;;;;;;4951259;28;20214;-74
2024/02/11 12:31:29;;;;;;;29.70;19.43;;;9.90;99.90;;;;;;4951233;28;20211;-74
2024/02/11 12:33:57;;;;;;;28.67;19.17;;;9.90;99.90;;;;;;4951084;29;20705;-74
2024/02/11 12:36:25;;;;;;;29.43;19.43;;;9.90;99.90;;;;;;4952532;28;20263;-74